sensor_id;sensor_type;location;lat;lon;timestamp;P1;durP1;ratioP1;P2;durP2;ratioP2
7383;SDS011;3733;47.994;8.820;2022-09-09T00:01:15;4.97;;;1.67;;
7383;SDS011;3733;47.994;8.820;2022-09-09T00:09:12;4.60;;;1.83;;
7383;SDS011;3733;47.994;8.820;2022-09-09T00:14:23;4.93;;;1.97;;
7383;SDS011;3733;47.994;8.820;2022-09-09T00:16:58;3.90;;;1.70;;
7383;SDS011;3733;47.994;8.820;2022-09-09T00:19:33;6.27;;;1.90;;
7383;SDS011;3733;47.994;8.820;2022-09-09T00:24:53;7.00;;;1.70;;
7383;SDS011;3733;47.994;8.820;2022-09-09T00:30:23;3.50;;;1.87;;
7383;SDS011;3733;47.994;8.820;2022-09-09T00:32:54;5.40;;;1.83;;
7383;SDS011;3733;47.994;8.820;2022-09-09T00:35:26;5.40;;;1.80;;
7383;SDS011;3733;47.994;8.820;2022-09-09T00:37:56;2.37;;;1.90;;
7383;SDS011;3733;47.994;8.820;2022-09-09T00:40:29;4.90;;;1.83;;
7383;SDS011;3733;47.994;8.820;2022-09-09T00:57:13;4.10;;;2.00;;
7383;SDS011;3733;47.994;8.820;2022-09-09T01:02:59;3.43;;;1.73;;
7383;SDS011;3733;47.994;8.820;2022-09-09T01:08:01;4.30;;;1.70;;
7383;SDS011;3733;47.994;8.820;2022-09-09T01:10:36;5.03;;;1.90;;
7383;SDS011;3733;47.994;8.820;2022-09-09T01:13:11;2.43;;;1.60;;
7383;SDS011;3733;47.994;8.820;2022-09-09T01:16:00;9.30;;;1.90;;
7383;SDS011;3733;47.994;8.820;2022-09-09T01:18:34;3.20;;;2.00;;
7383;SDS011;3733;47.994;8.820;2022-09-09T01:21:16;4.40;;;2.40;;
7383;SDS011;3733;47.994;8.820;2022-09-09T01:26:37;2.70;;;1.50;;
7383;SDS011;3733;47.994;8.820;2022-09-09T01:29:04;6.10;;;1.90;;
7383;SDS011;3733;47.994;8.820;2022-09-09T01:34:10;2.50;;;2.20;;
7383;SDS011;3733;47.994;8.820;2022-09-09T01:36:44;2.63;;;2.03;;
7383;SDS011;3733;47.994;8.820;2022-09-09T01:39:20;7.60;;;2.03;;
7383;SDS011;3733;47.994;8.820;2022-09-09T01:41:46;2.37;;;1.90;;
7383;SDS011;3733;47.994;8.820;2022-09-09T01:44:12;1.77;;;1.67;;
7383;SDS011;3733;47.994;8.820;2022-09-09T01:46:39;5.23;;;1.70;;
7383;SDS011;3733;47.994;8.820;2022-09-09T01:49:05;2.73;;;1.93;;
7383;SDS011;3733;47.994;8.820;2022-09-09T01:51:32;3.77;;;1.80;;
7383;SDS011;3733;47.994;8.820;2022-09-09T01:53:59;8.60;;;2.60;;
7383;SDS011;3733;47.994;8.820;2022-09-09T02:02:17;3.43;;;1.93;;
7383;SDS011;3733;47.994;8.820;2022-09-09T02:04:49;3.03;;;2.17;;
7383;SDS011;3733;47.994;8.820;2022-09-09T02:12:38;2.80;;;2.00;;
7383;SDS011;3733;47.994;8.820;2022-09-09T02:15:30;7.40;;;2.87;;
7383;SDS011;3733;47.994;8.820;2022-09-09T02:18:08;3.93;;;2.27;;
7383;SDS011;3733;47.994;8.820;2022-09-09T02:20:36;8.67;;;2.50;;
7383;SDS011;3733;47.994;8.820;2022-09-09T02:23:03;3.80;;;2.27;;
7383;SDS011;3733;47.994;8.820;2022-09-09T02:25:30;5.07;;;2.30;;
7383;SDS011;3733;47.994;8.820;2022-09-09T02:27:57;5.17;;;2.30;;
7383;SDS011;3733;47.994;8.820;2022-09-09T02:30:23;5.77;;;2.10;;
7383;SDS011;3733;47.994;8.820;2022-09-09T02:32:50;2.90;;;2.40;;
7383;SDS011;3733;47.994;8.820;2022-09-09T02:35:22;4.83;;;2.00;;
7383;SDS011;3733;47.994;8.820;2022-09-09T02:37:49;3.50;;;2.33;;
7383;SDS011;3733;47.994;8.820;2022-09-09T02:40:17;4.40;;;2.23;;
7383;SDS011;3733;47.994;8.820;2022-09-09T02:42:44;8.20;;;2.60;;
7383;SDS011;3733;47.994;8.820;2022-09-09T02:45:16;7.27;;;2.60;;
7383;SDS011;3733;47.994;8.820;2022-09-09T02:50:26;3.37;;;2.03;;
7383;SDS011;3733;47.994;8.820;2022-09-09T02:58:12;6.20;;;2.10;;
7383;SDS011;3733;47.994;8.820;2022-09-09T03:00:42;6.30;;;2.23;;
7383;SDS011;3733;47.994;8.820;2022-09-09T03:03:10;6.63;;;2.53;;
7383;SDS011;3733;47.994;8.820;2022-09-09T03:05:36;2.80;;;2.37;;
7383;SDS011;3733;47.994;8.820;2022-09-09T03:08:03;4.97;;;2.67;;
7383;SDS011;3733;47.994;8.820;2022-09-09T03:10:28;3.10;;;2.00;;
7383;SDS011;3733;47.994;8.820;2022-09-09T03:12:54;4.50;;;2.40;;
7383;SDS011;3733;47.994;8.820;2022-09-09T03:15:20;2.40;;;2.07;;
7383;SDS011;3733;47.994;8.820;2022-09-09T03:17:46;4.90;;;3.07;;
7383;SDS011;3733;47.994;8.820;2022-09-09T03:20:12;5.57;;;2.50;;
7383;SDS011;3733;47.994;8.820;2022-09-09T03:22:37;5.07;;;2.70;;
7383;SDS011;3733;47.994;8.820;2022-09-09T03:25:03;5.70;;;2.33;;
7383;SDS011;3733;47.994;8.820;2022-09-09T03:27:30;6.00;;;2.60;;
7383;SDS011;3733;47.994;8.820;2022-09-09T03:29:56;4.90;;;2.57;;
7383;SDS011;3733;47.994;8.820;2022-09-09T03:32:22;3.73;;;2.17;;
7383;SDS011;3733;47.994;8.820;2022-09-09T03:34:50;4.87;;;1.97;;
7383;SDS011;3733;47.994;8.820;2022-09-09T03:37:17;4.80;;;2.17;;
7383;SDS011;3733;47.994;8.820;2022-09-09T03:39:44;4.70;;;2.73;;
7383;SDS011;3733;47.994;8.820;2022-09-09T03:42:12;9.53;;;2.70;;
7383;SDS011;3733;47.994;8.820;2022-09-09T03:44:45;3.50;;;2.90;;
7383;SDS011;3733;47.994;8.820;2022-09-09T03:47:14;2.77;;;2.47;;
7383;SDS011;3733;47.994;8.820;2022-09-09T03:49:41;5.57;;;2.93;;
7383;SDS011;3733;47.994;8.820;2022-09-09T03:52:08;6.87;;;2.57;;
7383;SDS011;3733;47.994;8.820;2022-09-09T03:54:34;4.17;;;2.57;;
7383;SDS011;3733;47.994;8.820;2022-09-09T03:56:59;3.03;;;2.33;;
7383;SDS011;3733;47.994;8.820;2022-09-09T03:59:25;3.80;;;2.20;;
7383;SDS011;3733;47.994;8.820;2022-09-09T04:01:51;3.17;;;2.40;;
7383;SDS011;3733;47.994;8.820;2022-09-09T04:04:17;3.90;;;2.50;;
7383;SDS011;3733;47.994;8.820;2022-09-09T04:06:42;3.57;;;2.67;;
7383;SDS011;3733;47.994;8.820;2022-09-09T04:09:08;3.70;;;2.30;;
7383;SDS011;3733;47.994;8.820;2022-09-09T04:11:33;3.30;;;2.30;;
7383;SDS011;3733;47.994;8.820;2022-09-09T04:13:59;3.43;;;2.17;;
7383;SDS011;3733;47.994;8.820;2022-09-09T04:16:25;4.20;;;2.37;;
7383;SDS011;3733;47.994;8.820;2022-09-09T04:18:51;3.23;;;2.30;;
7383;SDS011;3733;47.994;8.820;2022-09-09T04:21:18;3.93;;;2.30;;
7383;SDS011;3733;47.994;8.820;2022-09-09T04:23:43;6.10;;;2.20;;
7383;SDS011;3733;47.994;8.820;2022-09-09T04:26:09;4.33;;;2.27;;
7383;SDS011;3733;47.994;8.820;2022-09-09T04:28:35;6.57;;;2.20;;
7383;SDS011;3733;47.994;8.820;2022-09-09T04:31:08;4.23;;;2.00;;
7383;SDS011;3733;47.994;8.820;2022-09-09T04:33:39;7.47;;;2.80;;
7383;SDS011;3733;47.994;8.820;2022-09-09T04:36:05;2.57;;;2.37;;
7383;SDS011;3733;47.994;8.820;2022-09-09T04:38:31;7.53;;;2.63;;
7383;SDS011;3733;47.994;8.820;2022-09-09T04:40:56;13.97;;;2.53;;
7383;SDS011;3733;47.994;8.820;2022-09-09T04:43:22;2.60;;;2.20;;
7383;SDS011;3733;47.994;8.820;2022-09-09T04:45:50;3.27;;;2.07;;
7383;SDS011;3733;47.994;8.820;2022-09-09T04:48:17;2.70;;;2.40;;
7383;SDS011;3733;47.994;8.820;2022-09-09T04:50:43;4.20;;;2.20;;
7383;SDS011;3733;47.994;8.820;2022-09-09T04:53:09;2.40;;;2.00;;
7383;SDS011;3733;47.994;8.820;2022-09-09T04:55:35;2.20;;;2.00;;
7383;SDS011;3733;47.994;8.820;2022-09-09T04:58:07;2.93;;;2.30;;
7383;SDS011;3733;47.994;8.820;2022-09-09T05:00:34;5.90;;;2.53;;
7383;SDS011;3733;47.994;8.820;2022-09-09T05:03:04;3.77;;;2.50;;
7383;SDS011;3733;47.994;8.820;2022-09-09T05:05:31;6.37;;;2.60;;
7383;SDS011;3733;47.994;8.820;2022-09-09T05:08:02;9.17;;;2.40;;
7383;SDS011;3733;47.994;8.820;2022-09-09T05:10:33;8.10;;;6.63;;
7383;SDS011;3733;47.994;8.820;2022-09-09T05:13:01;11.93;;;6.63;;
7383;SDS011;3733;47.994;8.820;2022-09-09T05:15:27;11.63;;;3.87;;
7383;SDS011;3733;47.994;8.820;2022-09-09T05:17:56;5.13;;;3.80;;
7383;SDS011;3733;47.994;8.820;2022-09-09T05:20:26;3.43;;;3.13;;
7383;SDS011;3733;47.994;8.820;2022-09-09T05:22:53;4.00;;;2.60;;
7383;SDS011;3733;47.994;8.820;2022-09-09T05:25:19;5.80;;;3.40;;
7383;SDS011;3733;47.994;8.820;2022-09-09T05:27:46;5.70;;;3.23;;
7383;SDS011;3733;47.994;8.820;2022-09-09T05:30:12;8.03;;;5.00;;
7383;SDS011;3733;47.994;8.820;2022-09-09T05:32:37;7.67;;;5.67;;
7383;SDS011;3733;47.994;8.820;2022-09-09T05:35:03;3.67;;;3.37;;
7383;SDS011;3733;47.994;8.820;2022-09-09T05:37:30;9.63;;;2.80;;
7383;SDS011;3733;47.994;8.820;2022-09-09T05:39:56;7.83;;;2.63;;
7383;SDS011;3733;47.994;8.820;2022-09-09T05:42:22;12.53;;;2.90;;
7383;SDS011;3733;47.994;8.820;2022-09-09T05:44:48;4.80;;;3.00;;
7383;SDS011;3733;47.994;8.820;2022-09-09T05:47:15;5.07;;;2.70;;
7383;SDS011;3733;47.994;8.820;2022-09-09T05:49:42;4.00;;;2.90;;
7383;SDS011;3733;47.994;8.820;2022-09-09T05:52:07;4.80;;;3.00;;
7383;SDS011;3733;47.994;8.820;2022-09-09T05:54:34;7.50;;;2.87;;
7383;SDS011;3733;47.994;8.820;2022-09-09T05:57:00;7.77;;;3.27;;
7383;SDS011;3733;47.994;8.820;2022-09-09T05:59:26;3.20;;;2.90;;
7383;SDS011;3733;47.994;8.820;2022-09-09T06:01:52;7.33;;;3.03;;
7383;SDS011;3733;47.994;8.820;2022-09-09T06:04:18;5.40;;;3.73;;
7383;SDS011;3733;47.994;8.820;2022-09-09T06:06:45;4.77;;;3.33;;
7383;SDS011;3733;47.994;8.820;2022-09-09T06:09:11;8.70;;;3.80;;
7383;SDS011;3733;47.994;8.820;2022-09-09T06:11:37;7.13;;;2.90;;
7383;SDS011;3733;47.994;8.820;2022-09-09T06:14:04;4.07;;;3.13;;
7383;SDS011;3733;47.994;8.820;2022-09-09T06:16:31;9.63;;;3.50;;
7383;SDS011;3733;47.994;8.820;2022-09-09T06:18:58;3.97;;;2.87;;
7383;SDS011;3733;47.994;8.820;2022-09-09T06:21:25;4.83;;;2.93;;
7383;SDS011;3733;47.994;8.820;2022-09-09T06:23:51;2.77;;;2.57;;
7383;SDS011;3733;47.994;8.820;2022-09-09T06:26:39;6.23;;;3.80;;
7383;SDS011;3733;47.994;8.820;2022-09-09T06:29:06;6.83;;;3.80;;
7383;SDS011;3733;47.994;8.820;2022-09-09T06:31:33;9.23;;;4.00;;
7383;SDS011;3733;47.994;8.820;2022-09-09T06:34:00;5.93;;;3.30;;
7383;SDS011;3733;47.994;8.820;2022-09-09T06:36:27;4.70;;;3.67;;
7383;SDS011;3733;47.994;8.820;2022-09-09T06:38:54;6.90;;;3.73;;
7383;SDS011;3733;47.994;8.820;2022-09-09T06:41:21;6.80;;;3.60;;
7383;SDS011;3733;47.994;8.820;2022-09-09T06:43:47;6.77;;;4.30;;
7383;SDS011;3733;47.994;8.820;2022-09-09T06:46:14;6.27;;;3.57;;
7383;SDS011;3733;47.994;8.820;2022-09-09T06:48:43;6.47;;;4.13;;
7383;SDS011;3733;47.994;8.820;2022-09-09T06:53:38;7.67;;;4.20;;
7383;SDS011;3733;47.994;8.820;2022-09-09T06:58:36;6.60;;;3.63;;
7383;SDS011;3733;47.994;8.820;2022-09-09T07:01:08;7.23;;;4.10;;
7383;SDS011;3733;47.994;8.820;2022-09-09T07:03:34;7.20;;;3.83;;
7383;SDS011;3733;47.994;8.820;2022-09-09T07:06:00;4.53;;;2.90;;
7383;SDS011;3733;47.994;8.820;2022-09-09T07:08:27;4.80;;;3.13;;
7383;SDS011;3733;47.994;8.820;2022-09-09T07:10:53;4.97;;;2.97;;
7383;SDS011;3733;47.994;8.820;2022-09-09T07:13:25;7.13;;;3.10;;
7383;SDS011;3733;47.994;8.820;2022-09-09T07:15:52;5.07;;;2.70;;
7383;SDS011;3733;47.994;8.820;2022-09-09T07:18:18;3.13;;;2.43;;
7383;SDS011;3733;47.994;8.820;2022-09-09T07:20:54;3.30;;;2.70;;
7383;SDS011;3733;47.994;8.820;2022-09-09T07:23:20;4.50;;;2.10;;
7383;SDS011;3733;47.994;8.820;2022-09-09T07:25:46;5.70;;;3.53;;
7383;SDS011;3733;47.994;8.820;2022-09-09T07:28:12;6.37;;;2.13;;
7383;SDS011;3733;47.994;8.820;2022-09-09T07:30:38;5.17;;;1.97;;
7383;SDS011;3733;47.994;8.820;2022-09-09T07:33:05;4.00;;;2.10;;
7383;SDS011;3733;47.994;8.820;2022-09-09T07:35:31;6.70;;;2.60;;
7383;SDS011;3733;47.994;8.820;2022-09-09T07:37:57;4.47;;;2.03;;
7383;SDS011;3733;47.994;8.820;2022-09-09T07:40:23;6.63;;;2.00;;
7383;SDS011;3733;47.994;8.820;2022-09-09T07:42:49;4.67;;;1.90;;
7383;SDS011;3733;47.994;8.820;2022-09-09T07:45:15;2.43;;;1.90;;
7383;SDS011;3733;47.994;8.820;2022-09-09T07:47:41;4.70;;;2.00;;
7383;SDS011;3733;47.994;8.820;2022-09-09T07:50:08;4.37;;;2.00;;
7383;SDS011;3733;47.994;8.820;2022-09-09T07:52:35;4.20;;;1.87;;
7383;SDS011;3733;47.994;8.820;2022-09-09T07:55:01;2.50;;;1.97;;
7383;SDS011;3733;47.994;8.820;2022-09-09T07:57:30;2.80;;;1.80;;
7383;SDS011;3733;47.994;8.820;2022-09-09T07:59:56;3.70;;;1.97;;
7383;SDS011;3733;47.994;8.820;2022-09-09T08:02:25;4.70;;;1.90;;
7383;SDS011;3733;47.994;8.820;2022-09-09T08:04:53;2.50;;;2.30;;
7383;SDS011;3733;47.994;8.820;2022-09-09T08:07:18;4.30;;;1.90;;
7383;SDS011;3733;47.994;8.820;2022-09-09T08:09:46;8.93;;;2.23;;
7383;SDS011;3733;47.994;8.820;2022-09-09T08:12:12;6.70;;;2.10;;
7383;SDS011;3733;47.994;8.820;2022-09-09T08:14:38;5.07;;;2.20;;
7383;SDS011;3733;47.994;8.820;2022-09-09T08:17:05;2.77;;;1.63;;
7383;SDS011;3733;47.994;8.820;2022-09-09T08:19:30;10.70;;;2.70;;
7383;SDS011;3733;47.994;8.820;2022-09-09T08:21:59;7.23;;;2.50;;
7383;SDS011;3733;47.994;8.820;2022-09-09T08:24:26;4.80;;;2.20;;
7383;SDS011;3733;47.994;8.820;2022-09-09T08:26:52;6.67;;;2.03;;
7383;SDS011;3733;47.994;8.820;2022-09-09T08:29:18;3.70;;;2.07;;
7383;SDS011;3733;47.994;8.820;2022-09-09T08:34:11;8.80;;;2.03;;
7383;SDS011;3733;47.994;8.820;2022-09-09T08:36:38;3.30;;;2.20;;
7383;SDS011;3733;47.994;8.820;2022-09-09T08:39:07;8.00;;;2.27;;
7383;SDS011;3733;47.994;8.820;2022-09-09T08:52:27;3.10;;;2.23;;
7383;SDS011;3733;47.994;8.820;2022-09-09T08:54:58;5.63;;;2.27;;
7383;SDS011;3733;47.994;8.820;2022-09-09T08:57:35;6.37;;;2.00;;
7383;SDS011;3733;47.994;8.820;2022-09-09T09:00:01;6.50;;;1.90;;
7383;SDS011;3733;47.994;8.820;2022-09-09T09:11:03;4.80;;;1.70;;
7383;SDS011;3733;47.994;8.820;2022-09-09T09:13:44;10.40;;;2.07;;
7383;SDS011;3733;47.994;8.820;2022-09-09T09:19:07;3.90;;;1.67;;
7383;SDS011;3733;47.994;8.820;2022-09-09T09:24:35;3.83;;;1.50;;
7383;SDS011;3733;47.994;8.820;2022-09-09T09:27:16;2.93;;;1.50;;
7383;SDS011;3733;47.994;8.820;2022-09-09T09:30:01;4.30;;;1.30;;
7383;SDS011;3733;47.994;8.820;2022-09-09T09:32:51;3.70;;;1.80;;
7383;SDS011;3733;47.994;8.820;2022-09-09T09:35:20;4.13;;;1.43;;
7383;SDS011;3733;47.994;8.820;2022-09-09T09:37:46;2.43;;;1.37;;
7383;SDS011;3733;47.994;8.820;2022-09-09T09:40:14;5.30;;;1.83;;
7383;SDS011;3733;47.994;8.820;2022-09-09T09:42:58;4.20;;;2.17;;
7383;SDS011;3733;47.994;8.820;2022-09-09T09:45:41;6.03;;;1.50;;
7383;SDS011;3733;47.994;8.820;2022-09-09T09:48:10;5.23;;;1.37;;
7383;SDS011;3733;47.994;8.820;2022-09-09T09:50:46;4.83;;;1.37;;
7383;SDS011;3733;47.994;8.820;2022-09-09T09:53:22;7.07;;;1.43;;
7383;SDS011;3733;47.994;8.820;2022-09-09T09:56:00;1.20;;;1.00;;
7383;SDS011;3733;47.994;8.820;2022-09-09T09:58:27;3.67;;;1.30;;
7383;SDS011;3733;47.994;8.820;2022-09-09T10:00:58;3.00;;;1.10;;
7383;SDS011;3733;47.994;8.820;2022-09-09T10:05:52;2.40;;;1.03;;
7383;SDS011;3733;47.994;8.820;2022-09-09T10:08:18;1.93;;;1.00;;
7383;SDS011;3733;47.994;8.820;2022-09-09T10:15:48;2.20;;;1.13;;
7383;SDS011;3733;47.994;8.820;2022-09-09T10:18:42;4.97;;;1.00;;
7383;SDS011;3733;47.994;8.820;2022-09-09T10:22:02;3.37;;;1.20;;
7383;SDS011;3733;47.994;8.820;2022-09-09T10:27:48;5.57;;;1.10;;
7383;SDS011;3733;47.994;8.820;2022-09-09T10:39:24;1.97;;;1.30;;
7383;SDS011;3733;47.994;8.820;2022-09-09T10:52:55;3.07;;;1.40;;
7383;SDS011;3733;47.994;8.820;2022-09-09T10:55:39;4.17;;;1.60;;
7383;SDS011;3733;47.994;8.820;2022-09-09T10:58:10;3.80;;;1.50;;
7383;SDS011;3733;47.994;8.820;2022-09-09T11:00:48;3.50;;;1.80;;
7383;SDS011;3733;47.994;8.820;2022-09-09T11:03:19;2.73;;;1.27;;
7383;SDS011;3733;47.994;8.820;2022-09-09T11:05:55;2.20;;;1.10;;
7383;SDS011;3733;47.994;8.820;2022-09-09T11:08:26;1.20;;;1.10;;
7383;SDS011;3733;47.994;8.820;2022-09-09T11:16:40;1.73;;;1.07;;
7383;SDS011;3733;47.994;8.820;2022-09-09T11:19:18;6.83;;;1.47;;
7383;SDS011;3733;47.994;8.820;2022-09-09T11:21:53;2.30;;;1.07;;
7383;SDS011;3733;47.994;8.820;2022-09-09T11:27:07;4.50;;;1.60;;
7383;SDS011;3733;47.994;8.820;2022-09-09T11:42:48;3.23;;;1.60;;
7383;SDS011;3733;47.994;8.820;2022-09-09T11:45:22;2.70;;;1.07;;
7383;SDS011;3733;47.994;8.820;2022-09-09T11:47:59;8.20;;;1.00;;
7383;SDS011;3733;47.994;8.820;2022-09-09T11:52:51;1.20;;;1.10;;
7383;SDS011;3733;47.994;8.820;2022-09-09T11:55:48;3.70;;;1.00;;
7383;SDS011;3733;47.994;8.820;2022-09-09T11:58:36;3.10;;;1.07;;
7383;SDS011;3733;47.994;8.820;2022-09-09T12:01:29;4.80;;;1.40;;
7383;SDS011;3733;47.994;8.820;2022-09-09T12:06:41;1.47;;;0.80;;
7383;SDS011;3733;47.994;8.820;2022-09-09T12:09:12;4.67;;;1.23;;
7383;SDS011;3733;47.994;8.820;2022-09-09T12:11:44;2.97;;;0.90;;
7383;SDS011;3733;47.994;8.820;2022-09-09T12:14:20;1.77;;;0.83;;
7383;SDS011;3733;47.994;8.820;2022-09-09T12:16:47;2.33;;;1.00;;
7383;SDS011;3733;47.994;8.820;2022-09-09T12:19:14;1.63;;;0.73;;
7383;SDS011;3733;47.994;8.820;2022-09-09T12:21:48;2.00;;;0.80;;
7383;SDS011;3733;47.994;8.820;2022-09-09T12:27:14;2.23;;;1.00;;
7383;SDS011;3733;47.994;8.820;2022-09-09T12:29:49;2.83;;;1.00;;
7383;SDS011;3733;47.994;8.820;2022-09-09T12:32:22;5.07;;;1.20;;
7383;SDS011;3733;47.994;8.820;2022-09-09T12:34:59;1.90;;;0.93;;
7383;SDS011;3733;47.994;8.820;2022-09-09T12:37:35;2.30;;;1.00;;
7383;SDS011;3733;47.994;8.820;2022-09-09T12:40:15;2.23;;;1.10;;
7383;SDS011;3733;47.994;8.820;2022-09-09T12:42:44;4.93;;;1.40;;
7383;SDS011;3733;47.994;8.820;2022-09-09T12:45:16;1.20;;;1.03;;
7383;SDS011;3733;47.994;8.820;2022-09-09T12:47:48;3.40;;;1.20;;
7383;SDS011;3733;47.994;8.820;2022-09-09T12:50:22;1.60;;;0.83;;
7383;SDS011;3733;47.994;8.820;2022-09-09T12:52:51;5.67;;;1.00;;
7383;SDS011;3733;47.994;8.820;2022-09-09T12:55:32;1.83;;;1.00;;
7383;SDS011;3733;47.994;8.820;2022-09-09T12:58:02;2.33;;;0.90;;
7383;SDS011;3733;47.994;8.820;2022-09-09T13:00:31;4.40;;;0.83;;
7383;SDS011;3733;47.994;8.820;2022-09-09T13:03:14;3.67;;;0.80;;
7383;SDS011;3733;47.994;8.820;2022-09-09T13:05:42;3.43;;;1.00;;
7383;SDS011;3733;47.994;8.820;2022-09-09T13:08:11;2.37;;;0.90;;
7383;SDS011;3733;47.994;8.820;2022-09-09T13:13:23;2.90;;;0.80;;
7383;SDS011;3733;47.994;8.820;2022-09-09T13:15:56;2.63;;;1.10;;
7383;SDS011;3733;47.994;8.820;2022-09-09T13:18:25;3.63;;;1.00;;
7383;SDS011;3733;47.994;8.820;2022-09-09T13:20:57;2.70;;;0.80;;
7383;SDS011;3733;47.994;8.820;2022-09-09T13:23:25;1.47;;;1.00;;
7383;SDS011;3733;47.994;8.820;2022-09-09T13:25:56;2.07;;;0.70;;
7383;SDS011;3733;47.994;8.820;2022-09-09T13:28:25;1.87;;;0.73;;
7383;SDS011;3733;47.994;8.820;2022-09-09T13:30:56;2.43;;;1.00;;
7383;SDS011;3733;47.994;8.820;2022-09-09T13:33:28;6.27;;;0.80;;
7383;SDS011;3733;47.994;8.820;2022-09-09T13:36:03;2.80;;;1.20;;
7383;SDS011;3733;47.994;8.820;2022-09-09T13:38:30;4.00;;;0.90;;
7383;SDS011;3733;47.994;8.820;2022-09-09T13:40:58;2.10;;;0.90;;
7383;SDS011;3733;47.994;8.820;2022-09-09T13:43:42;1.10;;;0.83;;
7383;SDS011;3733;47.994;8.820;2022-09-09T13:46:30;2.30;;;0.87;;
7383;SDS011;3733;47.994;8.820;2022-09-09T13:48:57;2.10;;;1.10;;
7383;SDS011;3733;47.994;8.820;2022-09-09T13:53:59;3.30;;;1.00;;
7383;SDS011;3733;47.994;8.820;2022-09-09T13:56:25;3.30;;;1.10;;
7383;SDS011;3733;47.994;8.820;2022-09-09T13:58:51;5.20;;;1.00;;
7383;SDS011;3733;47.994;8.820;2022-09-09T14:01:16;3.17;;;1.10;;
7383;SDS011;3733;47.994;8.820;2022-09-09T14:03:42;1.70;;;0.80;;
7383;SDS011;3733;47.994;8.820;2022-09-09T14:06:08;5.03;;;1.33;;
7383;SDS011;3733;47.994;8.820;2022-09-09T14:08:35;1.10;;;0.90;;
7383;SDS011;3733;47.994;8.820;2022-09-09T14:11:03;1.70;;;0.70;;
7383;SDS011;3733;47.994;8.820;2022-09-09T14:13:29;2.93;;;0.83;;
7383;SDS011;3733;47.994;8.820;2022-09-09T14:15:55;2.67;;;0.93;;
7383;SDS011;3733;47.994;8.820;2022-09-09T14:18:21;3.03;;;1.20;;
7383;SDS011;3733;47.994;8.820;2022-09-09T14:20:48;1.83;;;0.90;;
7383;SDS011;3733;47.994;8.820;2022-09-09T14:23:15;5.33;;;0.90;;
7383;SDS011;3733;47.994;8.820;2022-09-09T14:25:42;1.43;;;0.90;;
7383;SDS011;3733;47.994;8.820;2022-09-09T14:28:11;2.23;;;1.13;;
7383;SDS011;3733;47.994;8.820;2022-09-09T14:30:38;3.07;;;0.80;;
7383;SDS011;3733;47.994;8.820;2022-09-09T14:33:05;2.03;;;0.90;;
7383;SDS011;3733;47.994;8.820;2022-09-09T14:35:30;2.90;;;1.00;;
7383;SDS011;3733;47.994;8.820;2022-09-09T14:37:58;3.90;;;1.20;;
7383;SDS011;3733;47.994;8.820;2022-09-09T14:40:24;2.57;;;1.10;;
7383;SDS011;3733;47.994;8.820;2022-09-09T14:42:50;3.50;;;1.20;;
7383;SDS011;3733;47.994;8.820;2022-09-09T14:45:16;6.50;;;1.03;;
7383;SDS011;3733;47.994;8.820;2022-09-09T14:47:41;2.00;;;0.80;;
7383;SDS011;3733;47.994;8.820;2022-09-09T14:50:07;6.50;;;1.00;;
7383;SDS011;3733;47.994;8.820;2022-09-09T14:52:33;3.43;;;1.40;;
7383;SDS011;3733;47.994;8.820;2022-09-09T14:54:58;2.80;;;0.80;;
7383;SDS011;3733;47.994;8.820;2022-09-09T14:57:24;6.30;;;1.00;;
7383;SDS011;3733;47.994;8.820;2022-09-09T14:59:50;1.27;;;0.70;;
7383;SDS011;3733;47.994;8.820;2022-09-09T15:02:15;1.13;;;0.60;;
7383;SDS011;3733;47.994;8.820;2022-09-09T15:04:41;2.20;;;0.80;;
7383;SDS011;3733;47.994;8.820;2022-09-09T15:07:07;1.33;;;0.70;;
7383;SDS011;3733;47.994;8.820;2022-09-09T15:09:32;1.20;;;0.77;;
7383;SDS011;3733;47.994;8.820;2022-09-09T15:11:58;0.70;;;0.70;;
7383;SDS011;3733;47.994;8.820;2022-09-09T15:14:24;1.17;;;0.70;;
7383;SDS011;3733;47.994;8.820;2022-09-09T15:16:51;1.33;;;0.80;;
7383;SDS011;3733;47.994;8.820;2022-09-09T15:19:16;2.50;;;0.73;;
7383;SDS011;3733;47.994;8.820;2022-09-09T15:21:42;1.10;;;0.83;;
7383;SDS011;3733;47.994;8.820;2022-09-09T15:24:07;1.67;;;0.90;;
7383;SDS011;3733;47.994;8.820;2022-09-09T15:26:33;2.83;;;0.87;;
7383;SDS011;3733;47.994;8.820;2022-09-09T15:28:59;1.87;;;0.90;;
7383;SDS011;3733;47.994;8.820;2022-09-09T15:31:27;3.20;;;0.83;;
7383;SDS011;3733;47.994;8.820;2022-09-09T15:33:55;5.97;;;0.90;;
7383;SDS011;3733;47.994;8.820;2022-09-09T15:36:27;1.00;;;0.70;;
7383;SDS011;3733;47.994;8.820;2022-09-09T15:38:54;4.83;;;1.20;;
7383;SDS011;3733;47.994;8.820;2022-09-09T15:41:21;1.83;;;0.80;;
7383;SDS011;3733;47.994;8.820;2022-09-09T15:43:48;2.27;;;1.00;;
7383;SDS011;3733;47.994;8.820;2022-09-09T15:46:25;1.10;;;1.00;;
7383;SDS011;3733;47.994;8.820;2022-09-09T15:49:11;2.63;;;0.70;;
7383;SDS011;3733;47.994;8.820;2022-09-09T15:51:40;2.67;;;0.83;;
7383;SDS011;3733;47.994;8.820;2022-09-09T15:54:07;2.80;;;0.90;;
7383;SDS011;3733;47.994;8.820;2022-09-09T15:56:34;2.77;;;0.83;;
7383;SDS011;3733;47.994;8.820;2022-09-09T15:59:00;2.30;;;1.00;;
7383;SDS011;3733;47.994;8.820;2022-09-09T16:01:28;2.87;;;1.03;;
7383;SDS011;3733;47.994;8.820;2022-09-09T16:03:55;2.00;;;0.90;;
7383;SDS011;3733;47.994;8.820;2022-09-09T16:06:22;2.80;;;0.97;;
7383;SDS011;3733;47.994;8.820;2022-09-09T16:08:49;2.23;;;0.90;;
7383;SDS011;3733;47.994;8.820;2022-09-09T16:11:17;1.67;;;0.70;;
7383;SDS011;3733;47.994;8.820;2022-09-09T16:13:45;8.23;;;1.00;;
7383;SDS011;3733;47.994;8.820;2022-09-09T16:16:14;5.00;;;1.03;;
7383;SDS011;3733;47.994;8.820;2022-09-09T16:18:48;1.60;;;0.70;;
7383;SDS011;3733;47.994;8.820;2022-09-09T16:21:20;3.47;;;0.80;;
7383;SDS011;3733;47.994;8.820;2022-09-09T16:23:51;1.87;;;0.90;;
7383;SDS011;3733;47.994;8.820;2022-09-09T16:26:21;2.03;;;1.07;;
7383;SDS011;3733;47.994;8.820;2022-09-09T16:28:47;1.37;;;1.00;;
7383;SDS011;3733;47.994;8.820;2022-09-09T16:31:21;2.97;;;1.20;;
7383;SDS011;3733;47.994;8.820;2022-09-09T16:33:48;1.90;;;1.27;;
7383;SDS011;3733;47.994;8.820;2022-09-09T16:36:16;1.30;;;0.90;;
7383;SDS011;3733;47.994;8.820;2022-09-09T16:38:43;2.30;;;1.00;;
7383;SDS011;3733;47.994;8.820;2022-09-09T16:41:10;3.07;;;1.40;;
7383;SDS011;3733;47.994;8.820;2022-09-09T16:43:37;4.70;;;1.50;;
7383;SDS011;3733;47.994;8.820;2022-09-09T16:46:03;2.77;;;0.90;;
7383;SDS011;3733;47.994;8.820;2022-09-09T16:48:38;1.20;;;0.90;;
7383;SDS011;3733;47.994;8.820;2022-09-09T16:51:05;2.30;;;1.00;;
7383;SDS011;3733;47.994;8.820;2022-09-09T16:53:32;5.07;;;1.20;;
7383;SDS011;3733;47.994;8.820;2022-09-09T16:55:58;4.10;;;1.00;;
7383;SDS011;3733;47.994;8.820;2022-09-09T16:58:33;2.27;;;1.00;;
7383;SDS011;3733;47.994;8.820;2022-09-09T17:00:59;2.13;;;1.10;;
7383;SDS011;3733;47.994;8.820;2022-09-09T17:03:26;4.43;;;1.13;;
7383;SDS011;3733;47.994;8.820;2022-09-09T17:05:52;2.33;;;1.00;;
7383;SDS011;3733;47.994;8.820;2022-09-09T17:08:18;2.93;;;1.00;;
7383;SDS011;3733;47.994;8.820;2022-09-09T17:10:43;3.03;;;1.10;;
7383;SDS011;3733;47.994;8.820;2022-09-09T17:13:09;1.17;;;1.00;;
7383;SDS011;3733;47.994;8.820;2022-09-09T17:15:41;4.43;;;1.10;;
7383;SDS011;3733;47.994;8.820;2022-09-09T17:18:08;2.90;;;0.93;;
7383;SDS011;3733;47.994;8.820;2022-09-09T17:20:37;1.03;;;0.93;;
7383;SDS011;3733;47.994;8.820;2022-09-09T17:23:06;3.97;;;1.27;;
7383;SDS011;3733;47.994;8.820;2022-09-09T17:25:33;1.30;;;0.80;;
7383;SDS011;3733;47.994;8.820;2022-09-09T17:27:59;4.90;;;1.10;;
7383;SDS011;3733;47.994;8.820;2022-09-09T17:30:26;3.73;;;1.40;;
7383;SDS011;3733;47.994;8.820;2022-09-09T17:32:52;2.47;;;1.10;;
7383;SDS011;3733;47.994;8.820;2022-09-09T17:35:18;3.27;;;1.10;;
7383;SDS011;3733;47.994;8.820;2022-09-09T17:37:44;8.40;;;1.70;;
7383;SDS011;3733;47.994;8.820;2022-09-09T17:40:10;1.37;;;0.90;;
7383;SDS011;3733;47.994;8.820;2022-09-09T17:42:36;1.97;;;1.17;;
7383;SDS011;3733;47.994;8.820;2022-09-09T17:45:02;1.80;;;1.37;;
7383;SDS011;3733;47.994;8.820;2022-09-09T17:47:28;1.13;;;0.90;;
7383;SDS011;3733;47.994;8.820;2022-09-09T17:49:55;7.53;;;1.20;;
7383;SDS011;3733;47.994;8.820;2022-09-09T17:52:21;1.33;;;1.23;;
7383;SDS011;3733;47.994;8.820;2022-09-09T17:54:47;3.90;;;1.20;;
7383;SDS011;3733;47.994;8.820;2022-09-09T17:57:14;6.37;;;1.00;;
7383;SDS011;3733;47.994;8.820;2022-09-09T17:59:42;1.80;;;0.80;;
7383;SDS011;3733;47.994;8.820;2022-09-09T18:02:08;2.40;;;1.00;;
7383;SDS011;3733;47.994;8.820;2022-09-09T18:04:36;4.00;;;1.27;;